SBVT/VIX METAR and TAF weather

Enter ICAO airport designator
Station Type Date Time Source
SBVT METAR 2022/12/04 10:00 UTC NOAA

SBVT 041000Z 05005KT 8000 SCT015 BKN035 OVC100 24/22 Q1015


Station Type Date Time Source
SBVT Decoded METAR 2022/12/04 10:00 UTC NOAA

Vitoria Aeroporto , Brazil (SBVT) 20-16S 040-17W 4M
Dec 04, 2022 - 05:00 AM EST / 2022.12.04 1000 UTC
Wind: from the NE (050 degrees) at 6 MPH (5 KT):0
Visibility: 4 mile(s):0
Sky conditions: overcast
Temperature: 75 F (24 C)
Dew Point: 71 F (22 C)
Relative Humidity: 88%
Pressure (altimeter): 29.97 in. Hg (1015 hPa)
ob: SBVT 041000Z 05005KT 8000 SCT015 BKN035 OVC100 24/22 Q1015
cycle: 10

Station Type Date Time Source
SBVT TAF 2022/12/04 12:59 UTC NOAA

TAF SBVT 040859Z 0412/0512 03008KT 7000 SCT010 BKN030 TX26/0414Z TN22/0508Z
TEMPO 0414/0420 03008G18KT 3500 RA BR BKN007
BECMG 0504/0506 31005KT 9999 SCT020
RMK PGX

Example: see airport list